Time;durP1;ratioP1;P1;durP2;ratioP2;P2;SDS_P1;SDS_P2;PMS_P1;PMS_P2;Temp;Humidity;BMP_temperature;BMP_pressure;BME280_temperature;BME280_humidity;BME280_pressure;Samples;Min_cycle;Max_cycle;Signal;HPM_P1;HPM_P2
2021/07/20 00:00:21;;;;;;;;;14.50;12.00;;;;;23.41;57.91;101568.72;5010147;28;46353;-70
2021/07/20 00:02:56;;;;;;;;;17.00;14.00;;;;;23.37;57.84;101571.03;4997232;28;45749;-70
2021/07/20 00:05:28;;;;;;;;;14.00;13.00;;;;;23.34;57.98;101568.78;5006772;28;45548;-68
2021/07/20 00:07:58;;;;;;;;;3.00;1.25;;;;;23.31;58.07;101563.78;5011795;28;45671;-68
2021/07/20 00:10:31;;;;;;;;;19.00;13.00;;;;;23.28;58.14;101569.59;5013056;28;46151;-71
2021/07/20 00:12:56;;;;;;;;;14.75;13.00;;;;;23.26;58.64;101566.28;5014178;28;45575;-70
2021/07/20 00:15:22;;;;;;;;;12.75;10.75;;;;;23.22;58.71;101570.47;5013109;28;45802;-70
2021/07/20 00:17:50;;;;;;;;;12.75;12.25;;;;;23.20;58.76;101571.72;5007005;28;45544;-71
2021/07/20 00:20:18;;;;;;;;;15.50;14.25;;;;;23.17;58.93;101564.91;5012500;28;45672;-70
2021/07/20 00:22:43;;;;;;;;;15.75;13.50;;;;;23.15;58.87;101566.97;5009411;28;45546;-70
2021/07/20 00:25:10;;;;;;;;;12.50;11.25;;;;;23.12;58.77;101561.97;5023203;28;45470;-69
2021/07/20 00:27:37;;;;;;;;;11.50;11.00;;;;;23.10;58.86;101558.69;5004481;28;45505;-72
2021/07/20 00:30:04;;;;;;;;;18.25;15.00;;;;;23.06;59.03;101560.97;5008174;28;45549;-68
2021/07/20 00:32:29;;;;;;;;;11.25;10.75;;;;;23.05;59.22;101555.81;5010964;28;45580;-68
2021/07/20 00:34:55;;;;;;;;;10.00;8.25;;;;;23.02;59.43;101550.81;5007208;28;45655;-72
2021/07/20 00:37:20;;;;;;;;;13.50;13.00;;;;;23.01;59.49;101549.19;5011162;28;45492;-70
2021/07/20 00:39:46;;;;;;;;;16.00;14.75;;;;;22.96;59.37;101552.47;5000186;28;47092;-68
2021/07/20 00:42:11;;;;;;;;;15.00;14.25;;;;;22.94;59.23;101554.53;5009891;28;45550;-70
2021/07/20 00:44:36;;;;;;;;;15.75;14.00;;;;;22.90;59.64;101554.16;5002752;28;45701;-67
2021/07/20 00:47:02;;;;;;;;;14.00;13.50;;;;;22.87;59.71;101551.03;5008494;28;45594;-70
2021/07/20 00:49:27;;;;;;;;;12.50;11.00;;;;;22.83;59.90;101550.63;5012903;28;46988;-68
2021/07/20 00:51:53;;;;;;;;;14.75;14.75;;;;;22.80;60.46;101548.38;5017773;28;45517;-70
2021/07/20 00:54:18;;;;;;;;;13.00;13.00;;;;;22.75;60.05;101548.19;5007236;28;45481;-70
2021/07/20 00:56:44;;;;;;;;;17.50;13.75;;;;;22.73;60.20;101555.66;5011236;28;45501;-67
2021/07/20 00:59:12;;;;;;;;;15.75;14.00;;;;;22.71;60.27;101557.72;5009185;28;45776;-70
2021/07/20 01:01:37;;;;;;;;;13.00;13.00;;;;;22.68;60.47;101555.44;5008609;28;45512;-67
2021/07/20 01:04:03;;;;;;;;;15.50;14.00;;;;;22.64;60.29;101559.59;5018404;28;45912;-68
2021/07/20 01:06:30;;;;;;;;;16.00;14.00;;;;;22.61;60.54;101550.06;5016082;28;45574;-67
2021/07/20 01:08:59;;;;;;;;;13.75;13.00;;;;;22.59;60.78;101548.63;5009925;28;46359;-68
2021/07/20 01:11:29;;;;;;;;;14.00;11.50;;;;;22.58;60.87;101555.06;5021064;28;45609;-67
2021/07/20 01:13:56;;;;;;;;;14.25;11.50;;;;;22.55;60.28;101556.25;5008569;28;45411;-68
2021/07/20 01:16:23;;;;;;;;;13.75;13.00;;;;;22.54;60.94;101560.00;5011290;28;45490;-70
2021/07/20 01:18:50;;;;;;;;;13.25;11.75;;;;;22.47;60.67;101557.31;5018644;28;47051;-68
2021/07/20 01:21:15;;;;;;;;;16.25;13.00;;;;;22.47;60.55;101554.63;5015641;28;45591;-70
2021/07/20 01:23:45;;;;;;;;;16.50;13.50;;;;;22.43;60.86;101558.78;5011359;28;45405;-72
2021/07/20 01:26:11;;;;;;;;;13.50;12.50;;;;;22.39;61.06;101554.03;4990646;28;45549;-71
2021/07/20 01:28:38;;;;;;;;;13.25;11.75;;;;;22.36;60.99;101557.13;5016743;28;46137;-69
2021/07/20 01:31:09;;;;;;;;;14.75;12.75;;;;;22.31;61.10;101555.88;5015932;28;45497;-70
2021/07/20 01:33:38;;;;;;;;;15.50;15.25;;;;;22.29;61.21;101562.50;5013221;28;45461;-68
2021/07/20 01:36:06;;;;;;;;;14.25;13.00;;;;;22.26;61.18;101563.75;5008899;28;45458;-72
2021/07/20 01:38:32;;;;;;;;;15.25;12.50;;;;;22.24;61.62;101559.63;5008139;28;46327;-68
2021/07/20 01:41:06;;;;;;;;;13.25;12.00;;;;;22.22;61.54;101558.97;5015474;28;45567;-68
2021/07/20 01:43:37;;;;;;;;;14.25;13.00;;;;;22.19;61.57;101564.75;5017546;28;45489;-72
2021/07/20 01:46:05;;;;;;;;;16.75;14.25;;;;;22.16;61.83;101562.50;5022159;28;45387;-70
2021/07/20 01:48:35;;;;;;;;;15.25;13.25;;;;;22.12;61.71;101562.06;4993420;28;47081;-70
2021/07/20 01:51:02;;;;;;;;;14.75;13.00;;;;;22.10;62.18;101564.94;5007915;28;45430;-68
2021/07/20 01:53:28;;;;;;;;;13.75;12.75;;;;;22.06;61.90;101569.09;5011525;28;45627;-66
2021/07/20 01:55:53;;;;;;;;;15.25;14.00;;;;;22.04;62.48;101565.78;5013057;28;45545;-70
2021/07/20 01:58:19;;;;;;;;;17.00;17.00;;;;;22.01;62.21;101566.19;5007974;28;49382;-70
2021/07/20 02:00:45;;;;;;;;;15.00;14.50;;;;;21.99;62.81;101568.25;5011595;28;45469;-70
2021/07/20 02:03:31;;;;;;;;;16.25;15.00;;;;;21.96;62.39;101562.44;5012145;28;45596;-68
2021/07/20 02:08:48;;;;;;;;;14.00;13.25;;;;;21.91;62.37;101563.06;5008818;28;45817;-68
2021/07/20 02:11:21;;;;;;;;;13.75;13.75;;;;;21.90;62.47;101564.09;5009056;28;45905;-68
2021/07/20 02:13:52;;;;;;;;;17.75;17.00;;;;;21.89;63.33;101568.66;5010158;28;45771;-70
2021/07/20 02:16:22;;;;;;;;;17.00;14.50;;;;;21.88;63.13;101571.53;5002295;28;45537;-72
2021/07/20 02:18:53;;;;;;;;;13.75;11.50;;;;;21.84;62.73;101564.91;5009895;28;45545;-70
2021/07/20 02:21:21;;;;;;;;;13.50;12.75;;;;;21.83;63.08;101574.00;5010909;28;46148;-72
2021/07/20 02:23:52;;;;;;;;;17.50;15.00;;;;;21.81;62.68;101568.00;5012003;28;45592;-67
2021/07/20 02:26:20;;;;;;;;;14.00;13.75;;;;;21.81;62.68;101568.00;5008217;28;46788;-70
2021/07/20 02:28:47;;;;;;;;;16.25;14.00;;;;;21.77;63.36;101567.59;5006106;28;45605;-71
2021/07/20 02:31:16;;;;;;;;;14.75;13.00;;;;;21.76;62.98;101570.47;5015964;28;45500;-68
2021/07/20 02:33:43;;;;;;;;;16.50;15.00;;;;;21.74;63.31;101564.50;5012213;28;45481;-68
2021/07/20 02:36:08;;;;;;;;;16.25;13.75;;;;;21.71;62.85;101564.88;5014101;28;46122;-70
2021/07/20 02:38:37;;;;;;;;;17.00;15.25;;;;;21.69;63.38;101555.16;5010483;28;45459;-68
2021/07/20 02:41:03;;;;;;;;;13.50;13.00;;;;;21.67;62.79;101553.69;5014658;28;45940;-70
2021/07/20 02:43:29;;;;;;;;;15.75;13.75;;;;;21.65;62.89;101561.13;5012884;28;45613;-68
2021/07/20 02:45:55;;;;;;;;;18.50;12.25;;;;;21.63;62.45;101547.88;5011319;28;45513;-67
2021/07/20 02:48:23;;;;;;;;;14.75;12.25;;;;;21.63;62.78;101555.13;5010832;28;45555;-67
2021/07/20 02:50:50;;;;;;;;;14.75;13.50;;;;;21.62;62.32;101556.16;5006525;28;46710;-67
2021/07/20 02:53:16;;;;;;;;;14.00;14.00;;;;;21.60;62.63;101560.91;5017052;28;45379;-70
2021/07/20 02:55:43;;;;;;;;;15.00;14.00;;;;;21.58;62.65;101557.59;5009136;28;45548;-68
2021/07/20 02:58:09;;;;;;;;;15.00;14.00;;;;;21.55;62.46;101564.22;5020077;28;45640;-72
2021/07/20 03:00:37;;;;;;;;;14.00;14.00;;;;;21.54;62.69;101553.63;5003666;28;45453;-68
2021/07/20 03:03:02;;;;;;;;;16.50;14.00;;;;;21.52;62.22;101559.25;5013580;28;45529;-70
2021/07/20 03:05:28;;;;;;;;;14.50;14.50;;;;;21.51;62.49;101568.31;5006892;28;45544;-68
2021/07/20 03:07:57;;;;;;;;;19.25;13.75;;;;;21.48;62.73;101561.50;5004101;28;46213;-70
2021/07/20 03:10:27;;;;;;;;;18.75;16.25;;;;;21.48;62.38;101566.88;5009773;28;45484;-67
2021/07/20 03:12:57;;;;;;;;;13.25;12.00;;;;;21.45;62.47;101561.06;5010099;28;45487;-68
2021/07/20 03:15:24;;;;;;;;;15.25;15.25;;;;;21.44;62.40;101560.25;5008215;28;45524;-68
2021/07/20 03:17:52;;;;;;;;;16.25;14.00;;;;;21.42;62.66;101561.50;5005223;28;45569;-67
2021/07/20 03:20:18;;;;;;;;;20.75;17.00;;;;;21.38;62.69;101549.44;5002369;28;45541;-71
2021/07/20 03:22:46;;;;;;;;;17.50;15.50;;;;;21.35;63.51;101556.03;4993718;28;45651;-67
2021/07/20 03:25:13;;;;;;;;;20.50;14.25;;;;;21.33;63.04;101562.66;5012171;28;45617;-70
2021/07/20 03:27:42;;;;;;;;;14.50;14.25;;;;;21.30;63.04;101557.69;5006849;28;55100;-70
2021/07/20 03:30:09;;;;;;;;;15.25;15.25;;;;;21.27;63.33;101569.66;5005836;28;45638;-71
2021/07/20 03:32:37;;;;;;;;;14.00;14.00;;;;;21.25;62.96;101556.41;5009360;28;45508;-71
2021/07/20 03:35:05;;;;;;;;;14.75;14.00;;;;;21.23;63.23;101566.53;5006552;28;45549;-70
2021/07/20 03:37:31;;;;;;;;;14.25;12.25;;;;;21.20;63.42;101564.25;5015096;28;46470;-68
2021/07/20 03:39:58;;;;;;;;;15.50;14.00;;;;;21.17;64.50;101569.22;5010089;28;45653;-68
2021/07/20 03:42:25;;;;;;;;;16.75;13.25;;;;;21.12;63.82;101564.44;4993946;28;45427;-71
2021/07/20 03:44:52;;;;;;;;;16.25;13.75;;;;;21.10;64.19;101571.03;5016091;28;45492;-67
2021/07/20 03:47:18;;;;;;;;;16.50;15.00;;;;;21.08;63.93;101571.22;5004497;28;45459;-68
2021/07/20 03:49:45;;;;;;;;;13.00;13.00;;;;;21.05;63.59;101566.25;5009089;28;47643;-68
2021/07/20 03:52:13;;;;;;;;;14.50;13.00;;;;;21.02;63.74;101561.28;5012945;28;45903;-71
2021/07/20 03:54:39;;;;;;;;;19.00;16.50;;;;;21.02;63.26;101572.03;5009298;28;45633;-68
2021/07/20 03:57:05;;;;;;;;;14.25;14.25;;;;;20.99;64.09;101558.97;5005207;28;45587;-70
2021/07/20 03:59:33;;;;;;;;;14.75;13.25;;;;;20.98;63.73;101560.81;5011496;28;45609;-68
2021/07/20 04:02:01;;;;;;;;;15.25;14.25;;;;;20.96;63.30;101575.47;5018912;28;45897;-70
2021/07/20 04:04:32;;;;;;;;;15.50;13.75;;;;;20.94;63.83;101574.84;5012267;28;45418;-68
2021/07/20 04:06:59;;;;;;;;;19.50;16.50;;;;;20.92;63.51;101576.91;5007842;28;46084;-70
2021/07/20 04:09:26;;;;;;;;;14.75;13.50;;;;;20.91;63.76;101577.94;5007304;28;45774;-71
2021/07/20 04:11:52;;;;;;;;;17.50;15.50;;;;;20.87;63.95;101582.88;5007348;28;45553;-68
2021/07/20 04:14:18;;;;;;;;;17.50;14.25;;;;;20.85;63.93;101587.63;5010006;28;45706;-68
2021/07/20 04:16:44;;;;;;;;;14.00;14.00;;;;;20.82;64.63;101579.94;5009818;28;46189;-68
2021/07/20 04:19:14;;;;;;;;;16.25;15.00;;;;;20.81;63.95;101591.72;5011513;28;45493;-67
2021/07/20 04:21:40;;;;;;;;;19.25;16.50;;;;;20.79;64.21;101594.59;5005127;28;45510;-68
2021/07/20 04:24:06;;;;;;;;;14.00;12.00;;;;;20.78;64.24;101592.94;5012873;28;45523;-67
2021/07/20 04:26:32;;;;;;;;;17.50;16.00;;;;;20.76;64.06;101595.00;5017511;28;46408;-68
2021/07/20 04:28:57;;;;;;;;;17.25;13.50;;;;;20.75;64.23;101600.56;5011201;28;45579;-70
2021/07/20 04:31:24;;;;;;;;;17.25;16.25;;;;;20.74;65.04;101590.84;5010701;28;46343;-68
2021/07/20 04:33:50;;;;;;;;;16.00;14.75;;;;;20.75;65.36;101596.03;5017421;28;45513;-70
2021/07/20 04:36:16;;;;;;;;;17.75;14.25;;;;;20.75;65.18;101592.50;5006797;28;46973;-71
2021/07/20 04:38:43;;;;;;;;;13.50;13.50;;;;;20.72;64.35;101598.25;5015778;28;45492;-71
2021/07/20 04:41:08;;;;;;;;;19.75;16.00;;;;;20.69;64.36;101596.78;5014399;28;45636;-68
2021/07/20 04:43:37;;;;;;;;;18.75;14.75;;;;;20.71;65.35;101597.44;5014385;28;45513;-70
2021/07/20 04:46:04;;;;;;;;;16.00;15.75;;;;;20.73;64.67;101592.69;5013147;28;46491;-70
2021/07/20 04:48:30;;;;;;;;;17.00;14.25;;;;;20.74;65.08;101599.72;5004603;28;45672;-68
2021/07/20 04:50:56;;;;;;;;;18.25;14.50;;;;;20.77;64.62;101603.88;5007168;28;46062;-67
2021/07/20 04:53:22;;;;;;;;;18.75;16.50;;;;;20.81;64.55;101597.91;5006267;28;45611;-69
2021/07/20 04:55:50;;;;;;;;;17.25;16.50;;;;;20.86;64.30;101604.56;5002130;28;45915;-66
2021/07/20 04:58:16;;;;;;;;;19.00;16.75;;;;;20.91;63.86;101594.88;5006549;28;45577;-67
2021/07/20 05:00:44;;;;;;;;;17.75;17.00;;;;;20.95;64.74;101598.03;5004516;28;45584;-69
2021/07/20 05:03:10;;;;;;;;;17.50;17.00;;;;;20.98;64.02;101597.63;4991502;28;45526;-65
2021/07/20 05:05:38;;;;;;;;;19.25;17.50;;;;;20.99;63.64;101600.13;5006888;28;45564;-69
2021/07/20 05:08:07;;;;;;;;;17.25;16.75;;;;;21.07;64.07;101614.41;5004312;28;45680;-70
2021/07/20 05:10:35;;;;;;;;;20.00;17.50;;;;;21.10;63.26;101609.47;5006432;28;45692;-68
2021/07/20 05:13:00;;;;;;;;;16.25;15.50;;;;;21.11;63.27;101605.75;5009835;28;45543;-67
2021/07/20 05:15:26;;;;;;;;;24.00;17.75;;;;;21.16;63.60;101610.53;5008220;28;46202;-69
2021/07/20 05:17:52;;;;;;;;;19.00;19.00;;;;;21.16;62.94;101608.66;5009965;28;45533;-69
2021/07/20 05:20:18;;;;;;;;;19.50;18.50;;;;;21.16;62.54;101599.78;5011076;28;45574;-67
2021/07/20 05:22:45;;;;;;;;;18.50;16.75;;;;;21.20;63.58;101609.94;5007979;28;45380;-68
2021/07/20 05:25:13;;;;;;;;;16.75;14.75;;;;;21.26;62.54;101617.22;5010111;28;45953;-67
2021/07/20 05:27:42;;;;;;;;;17.50;15.50;;;;;21.33;62.51;101611.88;5006099;28;45497;-67
2021/07/20 05:30:08;;;;;;;;;22.00;19.75;;;;;21.40;62.48;101617.31;5008234;28;45549;-69
2021/07/20 05:32:37;;;;;;;;;15.75;15.75;;;;;21.36;62.26;101616.84;5006535;28;45537;-67
2021/07/20 05:35:03;;;;;;;;;19.25;17.75;;;;;21.39;62.19;101623.72;5006598;28;46891;-67
2021/07/20 05:37:34;;;;;;;;;21.00;14.75;;;;;21.46;62.03;101617.34;5008476;28;45550;-69
2021/07/20 05:40:00;;;;;;;;;19.25;17.50;;;;;21.53;62.06;101617.38;5012107;28;45491;-69
2021/07/20 05:42:28;;;;;;;;;23.25;18.50;;;;;21.63;61.92;101609.75;5003375;28;45598;-68
2021/07/20 05:44:54;;;;;;;;;22.75;20.50;;;;;21.69;61.33;101617.03;5012621;28;46192;-69
2021/07/20 05:47:20;;;;;;;;;21.25;19.25;;;;;21.68;61.14;101626.09;5011856;28;45522;-69
2021/07/20 05:49:46;;;;;;;;;25.50;18.50;;;;;21.68;60.80;101626.09;5016622;28;45606;-68
2021/07/20 05:52:15;;;;;;;;;24.25;17.75;;;;;21.71;61.31;101626.75;5015927;28;45470;-67
2021/07/20 05:54:44;;;;;;;;;19.75;18.00;;;;;21.81;60.71;101629.88;5009496;28;46943;-67
2021/07/20 05:57:11;;;;;;;;;21.25;18.25;;;;;21.89;60.95;101638.59;5006230;28;45549;-68
2021/07/20 05:59:42;;;;;;;;;26.75;20.00;;;;;21.99;60.16;101637.41;5008991;28;45532;-67
2021/07/20 06:02:11;;;;;;;;;21.50;19.75;;;;;22.03;60.26;101634.09;5008210;28;45738;-69
2021/07/20 06:04:38;;;;;;;;;25.25;19.75;;;;;22.07;59.43;101638.03;5005922;28;47410;-69
2021/07/20 06:07:08;;;;;;;;;29.00;25.25;;;;;22.06;58.56;101638.25;5007086;28;45482;-67
2021/07/20 06:09:35;;;;;;;;;27.25;22.75;;;;;22.05;58.51;101636.56;4994733;28;45541;-67
2021/07/20 06:12:04;;;;;;;;;27.25;23.75;;;;;22.05;58.40;101636.56;5005188;28;45503;-70
2021/07/20 06:14:31;;;;;;;;;26.00;21.50;;;;;22.10;58.91;101637.63;4985533;28;47944;-69
2021/07/20 06:16:56;;;;;;;;;27.00;22.50;;;;;22.20;58.24;101641.81;5009878;28;45421;-69
2021/07/20 06:19:22;;;;;;;;;28.00;23.25;;;;;22.24;58.07;101640.38;5005769;28;45856;-68
2021/07/20 06:21:49;;;;;;;;;26.75;24.00;;;;;22.32;55.44;101641.00;4993100;28;45815;-68
2021/07/20 06:24:15;;;;;;;;;35.00;27.75;;;;;22.29;55.38;101641.41;5011745;28;46410;-67
2021/07/20 06:26:41;;;;;;;;;30.00;26.75;;;;;22.25;57.19;101640.16;5005435;28;45507;-70
2021/07/20 06:29:11;;;;;;;;;37.00;27.00;;;;;22.27;54.10;101640.78;5011376;28;45442;-69
2021/07/20 06:31:40;;;;;;;;;27.50;24.25;;;;;22.32;54.36;101632.09;5006576;28;45467;-69
2021/07/20 06:34:07;;;;;;;;;31.25;28.00;;;;;22.36;55.42;101649.50;5015310;28;46978;-68
2021/07/20 06:36:36;;;;;;;;;34.25;29.25;;;;;22.39;54.50;101643.72;5008912;28;45557;-70
2021/07/20 06:39:04;;;;;;;;;23.00;21.00;;;;;22.46;54.07;101643.72;5008091;28;45596;-69
2021/07/20 06:41:34;;;;;;;;;29.25;24.75;;;;;22.59;54.01;101635.63;5006644;28;46044;-69
2021/07/20 06:43:59;;;;;;;;;41.75;32.00;;;;;22.67;52.57;101642.69;5008002;28;46241;-69
2021/07/20 06:46:26;;;;;;;;;34.25;27.00;;;;;22.69;53.00;101644.13;5001170;28;45781;-68
2021/07/20 06:48:52;;;;;;;;;26.50;23.00;;;;;22.75;52.88;101648.69;5008370;28;45432;-67
2021/07/20 06:51:17;;;;;;;;;27.50;21.25;;;;;22.84;52.12;101652.00;5008169;28;45597;-67
2021/07/20 06:53:43;;;;;;;;;33.75;25.50;;;;;22.92;50.14;101653.66;5005655;28;47072;-67
2021/07/20 06:56:16;;;;;;;;;30.25;26.50;;;;;22.99;51.00;101648.28;5007287;28;45663;-67
2021/07/20 06:58:42;;;;;;;;;31.75;24.25;;;;;23.01;49.01;101657.81;5006204;28;45859;-68
2021/07/20 07:01:10;;;;;;;;;33.75;28.50;;;;;23.03;50.73;101658.44;5007279;28;45592;-68
2021/07/20 07:03:44;;;;;;;;;33.50;26.00;;;;;23.09;51.53;101668.38;5010831;28;47264;-67
2021/07/20 07:06:11;;;;;;;;;36.25;28.75;;;;;23.17;49.88;101656.56;5005216;28;45597;-68
2021/07/20 07:08:37;;;;;;;;;28.75;25.50;;;;;23.24;50.31;101651.97;5001156;28;45777;-69
2021/07/20 07:11:03;;;;;;;;;30.50;26.25;;;;;23.26;49.86;101663.38;5007390;28;45594;-67
2021/07/20 07:13:29;;;;;;;;;33.25;29.50;;;;;23.37;49.11;101653.81;5011321;28;46001;-69
2021/07/20 07:15:56;;;;;;;;;36.25;30.00;;;;;23.45;50.07;101664.38;5005689;28;45613;-70
2021/07/20 07:18:23;;;;;;;;;34.75;30.50;;;;;23.59;49.11;101662.47;5007751;28;45762;-68
2021/07/20 07:20:50;;;;;;;;;30.00;25.00;;;;;23.67;48.83;101662.22;5015925;28;45434;-68
2021/07/20 07:23:20;;;;;;;;;31.25;28.25;;;;;23.76;50.11;101662.81;5004485;28;46268;-69
2021/07/20 07:25:48;;;;;;;;;37.75;30.25;;;;;23.90;49.55;101667.13;5012598;28;45561;-69
2021/07/20 07:28:16;;;;;;;;;37.50;30.25;;;;;23.95;47.71;101661.88;5015921;28;45497;-67
2021/07/20 07:30:43;;;;;;;;;34.50;30.00;;;;;24.00;46.44;101670.16;5005353;28;45547;-67
2021/07/20 07:33:09;;;;;;;;;37.25;30.50;;;;;24.11;48.95;101665.13;5019237;28;46159;-70
2021/07/20 07:35:35;;;;;;;;;33.75;30.25;;;;;24.31;48.07;101667.69;5004304;28;45616;-67
2021/07/20 07:38:02;;;;;;;;;34.25;29.50;;;;;24.53;48.16;101671.75;5008137;28;45823;-68
2021/07/20 07:40:29;;;;;;;;;37.75;28.25;;;;;24.77;44.99;101666.56;5006594;28;45540;-68
2021/07/20 07:42:57;;;;;;;;;33.75;27.75;;;;;24.86;46.41;101667.94;5007559;28;46252;-68
2021/07/20 07:45:23;;;;;;;;;36.00;30.75;;;;;24.96;45.30;101665.53;5003093;28;45510;-70
2021/07/20 07:47:49;;;;;;;;;35.75;29.00;;;;;25.10;45.45;101668.97;5002763;28;45548;-67
2021/07/20 07:50:17;;;;;;;;;33.75;29.50;;;;;25.31;46.25;101670.41;5003939;28;52537;-68
2021/07/20 07:52:43;;;;;;;;;36.25;29.75;;;;;26.35;47.74;101664.91;5005607;28;45592;-69
2021/07/20 07:55:09;;;;;;;;;32.50;28.50;;;;;29.17;41.25;101665.13;5001281;28;45498;-70
2021/07/20 07:57:35;;;;;;;;;35.25;30.00;;;;;32.05;33.90;101670.72;5001851;28;45869;-69
2021/07/20 08:00:05;;;;;;;;;36.50;29.00;;;;;34.40;34.41;101660.09;5008946;28;45505;-69
2021/07/20 08:02:34;;;;;;;;;25.00;21.50;;;;;36.24;33.08;101671.59;5003086;28;47385;-69
2021/07/20 08:05:01;;;;;;;;;34.75;30.25;;;;;37.82;31.68;101675.97;5005431;28;45538;-68
2021/07/20 08:07:28;;;;;;;;;36.75;29.25;;;;;39.32;31.06;101671.00;5007899;28;45671;-69
2021/07/20 08:09:55;;;;;;;;;27.25;24.25;;;;;40.19;28.18;101688.47;5009696;28;45652;-69
2021/07/20 08:12:22;;;;;;;;;29.75;27.25;;;;;41.11;26.10;101684.47;5011510;28;46202;-69
2021/07/20 08:14:48;;;;;;;;;27.50;25.25;;;;;42.00;26.70;101683.53;5008332;28;45538;-70
2021/07/20 08:17:14;;;;;;;;;26.50;23.50;;;;;43.24;25.35;101682.59;5009529;28;45565;-70
2021/07/20 08:19:41;;;;;;;;;29.00;25.00;;;;;44.52;23.20;101677.13;5009007;28;45791;-71
2021/07/20 08:22:11;;;;;;;;;33.25;26.00;;;;;45.39;18.52;101691.94;5016161;28;46163;-70
2021/07/20 08:24:42;;;;;;;;;24.75;23.75;;;;;45.49;21.01;101687.78;5008417;28;45580;-71
2021/07/20 08:27:15;;;;;;;;;35.50;26.25;;;;;46.06;20.06;101686.19;5006531;28;45528;-70
2021/07/20 08:29:44;;;;;;;;;29.25;24.25;;;;;46.68;20.45;101682.47;5015515;28;45558;-70
2021/07/20 08:32:15;;;;;;;;;31.75;27.50;;;;;47.31;19.30;101675.44;5011789;28;47217;-70
2021/07/20 08:34:58;;;;;;;;;21.00;19.75;;;;;47.52;20.16;101686.94;5018450;28;45985;-70
2021/07/20 08:37:24;;;;;;;;;28.75;25.00;;;;;47.76;18.71;101682.84;5014858;28;45422;-70
2021/07/20 08:39:51;;;;;;;;;26.75;24.50;;;;;48.12;18.50;101688.03;5012441;28;45528;-70
2021/07/20 08:42:34;;;;;;;;;29.25;25.50;;;;;47.62;17.42;101679.06;5009035;28;46357;-71
2021/07/20 08:45:08;;;;;;;;;27.75;26.00;;;;;47.73;17.65;101689.22;5006470;28;45623;-71
2021/07/20 08:48:02;;;;;;;;;32.75;25.00;;;;;47.97;18.50;101687.09;5008359;28;45563;-70
2021/07/20 08:51:06;;;;;;;;;22.00;21.50;;;;;48.80;16.97;101681.06;5008892;28;45492;-71
2021/07/20 08:53:41;;;;;;;;;23.75;21.50;;;;;49.36;17.23;101681.00;4948515;28;47256;-70
2021/07/20 08:56:08;;;;;;;;;18.25;17.50;;;;;49.67;15.86;101693.56;4959289;28;45870;-73
2021/07/20 08:58:42;;;;;;;;;22.50;19.50;;;;;49.76;16.63;101693.19;4935961;28;45543;-71
2021/07/20 09:01:13;;;;;;;;;23.25;22.00;;;;;49.93;15.72;101695.22;4965466;28;45711;-71
2021/07/20 09:04:11;;;;;;;;;24.50;20.75;;;;;50.08;15.91;101688.50;4952381;28;45684;-70
2021/07/20 09:06:47;;;;;;;;;21.25;21.00;;;;;50.28;15.62;101696.53;4936425;28;45562;-71
2021/07/20 09:09:18;;;;;;;;;23.50;20.00;;;;;49.81;11.58;101687.22;4959971;28;45598;-71
2021/07/20 09:11:50;;;;;;;;;22.00;19.25;;;;;48.44;14.92;101689.16;4952609;28;45976;-69
2021/07/20 09:14:34;;;;;;;;;18.50;17.75;;;;;47.64;16.05;101688.69;4950659;28;45979;-71
2021/07/20 09:17:13;;;;;;;;;20.00;18.00;;;;;47.26;15.83;101682.22;4959566;28;46012;-70
2021/07/20 09:19:55;;;;;;;;;25.00;19.50;;;;;47.27;16.71;101686.59;4954596;28;45303;-70
2021/07/20 09:22:39;;;;;;;;;22.25;19.00;;;;;47.39;15.96;101679.97;4964770;28;45735;-70
2021/07/20 09:25:04;;;;;;;;;22.25;21.25;;;;;47.37;17.65;101682.34;4970662;28;45638;-69
2021/07/20 09:27:47;;;;;;;;;23.50;20.50;;;;;47.67;16.22;101685.13;4983094;28;45553;-71
2021/07/20 09:30:17;;;;;;;;;16.75;15.75;;;;;47.14;15.10;101682.44;5006922;28;45639;-67
2021/07/20 09:32:45;;;;;;;;;21.75;18.75;;;;;46.08;16.10;101685.81;5007896;28;45570;-72
2021/07/20 09:35:20;;;;;;;;;20.50;16.75;;;;;45.06;16.10;101690.41;4993903;28;45555;-70
2021/07/20 09:37:53;;;;;;;;;19.50;17.50;;;;;44.17;18.72;101679.75;5009444;28;45435;-70
2021/07/20 09:40:22;;;;;;;;;18.75;17.75;;;;;43.48;18.24;101676.97;5017582;28;45471;-68
2021/07/20 09:42:53;;;;;;;;;17.25;15.00;;;;;42.68;20.38;101666.44;5010196;28;45540;-71
2021/07/20 09:45:24;;;;;;;;;18.75;18.75;;;;;42.36;21.14;101679.22;5006791;28;46371;-68
2021/07/20 09:47:54;;;;;;;;;19.75;13.50;;;;;41.89;20.39;101669.22;5009750;28;45490;-73
2021/07/20 09:50:21;;;;;;;;;14.75;14.50;;;;;40.59;20.90;101681.88;5010088;28;45417;-69
2021/07/20 09:52:55;;;;;;;;;18.50;15.25;;;;;39.69;21.76;101671.53;5013330;28;45450;-67
2021/07/20 09:55:45;;;;;;;;;14.25;12.75;;;;;38.51;22.36;101674.91;5010260;28;45599;-70
2021/07/20 09:58:29;;;;;;;;;13.75;12.00;;;;;38.02;24.44;101676.66;5008639;28;45744;-71
2021/07/20 10:01:15;;;;;;;;;15.50;13.00;;;;;38.18;24.57;101677.91;5014639;28;45724;-67
2021/07/20 10:03:40;;;;;;;;;12.00;12.00;;;;;38.24;24.52;101671.13;5004289;28;45586;-66
2021/07/20 10:06:13;;;;;;;;;14.25;13.75;;;;;38.42;23.92;101668.47;5003115;28;46430;-72
2021/07/20 10:08:53;;;;;;;;;15.00;14.25;;;;;38.66;24.30;101663.44;5003738;28;45632;-73
2021/07/20 10:11:35;;;;;;;;;12.75;12.25;;;;;38.90;25.59;101662.28;5011389;28;45650;-69
2021/07/20 10:14:27;;;;;;;;;18.25;15.25;;;;;39.17;23.79;101663.13;5010181;28;45481;-72
2021/07/20 10:17:20;;;;;;;;;15.25;14.00;;;;;39.28;23.02;101659.75;5005793;28;45633;-70
2021/07/20 10:20:01;;;;;;;;;14.75;13.50;;;;;38.89;23.12;101661.41;5001630;28;45547;-69
2021/07/20 10:22:36;;;;;;;;;16.25;15.00;;;;;38.67;24.09;101658.72;5000940;28;45494;-70
2021/07/20 10:25:13;;;;;;;;;14.50;14.25;;;;;38.62;23.68;101659.66;5010125;28;45640;-70
2021/07/20 10:27:47;;;;;;;;;12.00;10.75;;;;;38.41;23.88;101650.28;5002523;28;45601;-67
2021/07/20 10:30:15;;;;;;;;;13.50;12.00;;;;;38.35;23.05;101659.81;5003971;28;46492;-62
2021/07/20 10:32:53;;;;;;;;;18.75;16.75;;;;;38.31;24.06;101653.31;5004826;28;45573;-69
2021/07/20 10:35:32;;;;;;;;;16.00;15.00;;;;;38.58;25.47;101647.66;5001363;28;46041;-65
2021/07/20 10:38:00;;;;;;;;;22.00;17.50;;;;;38.66;24.38;101648.81;5004385;28;46655;-69
2021/07/20 10:40:27;;;;;;;;;15.75;14.25;;;;;38.40;22.68;101635.66;5003672;28;45505;-64
2021/07/20 10:43:00;;;;;;;;;16.00;14.75;;;;;37.71;24.58;101640.66;5007391;28;45495;-65
2021/07/20 10:45:31;;;;;;;;;16.00;15.00;;;;;37.60;26.38;101646.44;5005573;28;45538;-68
2021/07/20 10:48:06;;;;;;;;;23.50;18.50;;;;;37.85;24.62;101641.44;5003636;28;46197;-66
2021/07/20 10:50:37;;;;;;;;;22.50;19.50;;;;;37.88;24.13;101635.28;5004252;28;45520;-65
2021/07/20 10:53:13;;;;;;;;;17.50;17.00;;;;;37.70;25.02;101631.59;5002441;28;45826;-71
2021/07/20 10:56:04;;;;;;;;;21.25;19.25;;;;;38.06;25.14;101633.53;5001099;28;45740;-64
2021/07/20 10:58:53;;;;;;;;;23.25;19.75;;;;;38.64;24.79;101626.22;5003811;28;46268;-66
2021/07/20 11:01:21;;;;;;;;;19.50;19.50;;;;;38.77;22.53;101627.25;5004936;28;45780;-68
2021/07/20 11:04:17;;;;;;;;;19.75;17.00;;;;;38.32;24.48;101630.09;5003974;28;45635;-67
2021/07/20 11:06:46;;;;;;;;;16.00;15.00;;;;;38.53;24.36;101631.22;5001117;28;45666;-66
2021/07/20 11:09:18;;;;;;;;;16.25;13.75;;;;;38.79;24.13;101620.25;5009401;28;46395;-70
2021/07/20 11:11:48;;;;;;;;;21.50;20.25;;;;;39.17;24.43;101625.25;5007734;28;45493;-68
2021/07/20 11:14:14;;;;;;;;;16.50;16.50;;;;;39.24;22.35;101624.78;5001201;28;45624;-72
2021/07/20 11:16:41;;;;;;;;;20.25;19.00;;;;;39.12;23.88;101625.41;5000420;28;45483;-68
2021/07/20 11:19:09;;;;;;;;;19.50;17.75;;;;;39.40;24.19;101612.16;4998911;28;47665;-64
2021/07/20 11:21:35;;;;;;;;;19.50;17.25;;;;;39.72;21.93;101627.44;5002660;28;45476;-68